Time;durP1;ratioP1;P1;durP2;ratioP2;P2;SDS_P1;SDS_P2;PMS_P1;PMS_P2;Temp;Humidity;BMP_temperature;BMP_pressure;BME280_temperature;BME280_humidity;BME280_pressure;Samples;Min_cycle;Max_cycle;Signal;HPM_P1;HPM_P2
2020/12/03 00:01:24;;;;;;;24.52;13.85;;;3.30;99.90;;;;;;5055759;28;20074;-71
2020/12/03 00:03:55;;;;;;;21.10;12.02;;;3.30;99.90;;;;;;5056210;28;20095;-71
2020/12/03 00:06:35;;;;;;;24.30;13.85;;;3.30;99.90;;;;;;5060261;28;20104;-70
2020/12/03 00:09:15;;;;;;;23.92;13.85;;;3.30;99.90;;;;;;5057493;28;20147;-64
2020/12/03 00:11:48;;;;;;;22.42;13.77;;;3.20;99.90;;;;;;5054340;28;20373;-70
2020/12/03 00:14:14;;;;;;;23.98;13.90;;;3.10;99.90;;;;;;5057164;28;20028;-65
2020/12/03 00:16:41;;;;;;;23.73;14.15;;;3.00;99.90;;;;;;5055561;28;20036;-68
2020/12/03 00:19:08;;;;;;;23.52;14.20;;;2.90;99.90;;;;;;5058807;28;20017;-71
2020/12/03 00:21:38;;;;;;;26.63;15.50;;;2.90;99.90;;;;;;5054234;28;20025;-65
2020/12/03 00:24:06;;;;;;;22.35;13.20;;;2.80;99.90;;;;;;5062181;28;20025;-70
2020/12/03 00:26:31;;;;;;;22.48;13.25;;;2.70;99.90;;;;;;5055361;28;20025;-70
2020/12/03 00:28:58;;;;;;;22.65;12.35;;;2.70;99.90;;;;;;5054787;28;20036;-69
2020/12/03 00:31:24;;;;;;;24.77;13.13;;;2.70;99.90;;;;;;5054620;28;20029;-73
2020/12/03 00:33:50;;;;;;;21.27;12.05;;;2.70;99.90;;;;;;5056835;28;20051;-70
2020/12/03 00:36:16;;;;;;;23.98;13.40;;;2.60;99.90;;;;;;5054824;28;20105;-65
2020/12/03 00:38:42;;;;;;;20.50;12.73;;;2.60;99.90;;;;;;5054061;28;20085;-69
2020/12/03 00:41:08;;;;;;;25.40;13.63;;;2.60;99.90;;;;;;5060473;28;20028;-63
2020/12/03 00:43:34;;;;;;;21.25;12.63;;;2.50;99.90;;;;;;5058604;28;20068;-69
2020/12/03 00:45:59;;;;;;;25.30;12.25;;;2.50;99.90;;;;;;5054865;28;20025;-69
2020/12/03 00:48:25;;;;;;;21.92;12.93;;;2.50;99.90;;;;;;5055077;28;20017;-66
2020/12/03 00:50:51;;;;;;;22.85;12.73;;;2.50;99.90;;;;;;5056854;28;20059;-70
2020/12/03 00:53:17;;;;;;;21.35;12.23;;;2.50;99.90;;;;;;5053940;28;20090;-70
2020/12/03 00:55:44;;;;;;;22.40;12.82;;;2.60;99.90;;;;;;5055500;28;20025;-69
2020/12/03 00:58:11;;;;;;;22.58;13.02;;;2.50;99.90;;;;;;5057231;28;20036;-65
2020/12/03 01:00:36;;;;;;;21.42;12.95;;;2.60;99.90;;;;;;5055267;28;20021;-70
2020/12/03 01:03:03;;;;;;;21.73;13.43;;;2.60;99.90;;;;;;5054904;28;20044;-65
2020/12/03 01:05:28;;;;;;;20.83;12.45;;;2.60;99.90;;;;;;5057454;28;20036;-64
2020/12/03 01:07:54;;;;;;;21.55;12.63;;;2.60;99.90;;;;;;5054807;28;20473;-69
2020/12/03 01:10:26;;;;;;;22.13;12.82;;;2.60;99.90;;;;;;5054184;28;20103;-64
2020/12/03 01:12:51;;;;;;;21.45;12.68;;;2.60;99.90;;;;;;5055192;28;20025;-66
2020/12/03 01:15:18;;;;;;;19.67;12.25;;;2.70;99.90;;;;;;5057979;28;20060;-63
2020/12/03 01:17:44;;;;;;;21.30;13.27;;;2.80;99.90;;;;;;5056218;28;20117;-64
2020/12/03 01:20:13;;;;;;;20.58;12.85;;;2.80;99.90;;;;;;5053800;28;20061;-69
2020/12/03 01:22:38;;;;;;;21.40;13.33;;;2.90;99.90;;;;;;5054480;28;20037;-65
2020/12/03 01:25:05;;;;;;;22.88;13.15;;;2.90;99.90;;;;;;5056448;28;20047;-66
2020/12/03 01:27:31;;;;;;;22.38;13.27;;;3.00;99.90;;;;;;5053719;28;20028;-64
2020/12/03 01:29:58;;;;;;;21.77;13.35;;;3.00;99.90;;;;;;5058034;28;20033;-70
2020/12/03 01:32:23;;;;;;;21.95;13.07;;;3.10;99.90;;;;;;5065959;28;20400;-69
2020/12/03 01:34:49;;;;;;;23.50;13.95;;;3.10;99.90;;;;;;5058763;28;20496;-69
2020/12/03 01:37:17;;;;;;;25.88;14.55;;;3.10;99.90;;;;;;5057786;28;20045;-70
2020/12/03 01:39:46;;;;;;;26.85;15.15;;;3.20;99.90;;;;;;5057312;28;20457;-69
2020/12/03 01:42:13;;;;;;;28.95;17.38;;;3.20;99.90;;;;;;5061933;28;20495;-64
2020/12/03 01:44:43;;;;;;;29.75;16.45;;;3.30;99.90;;;;;;5057396;28;20062;-66
2020/12/03 01:47:32;;;;;;;25.38;15.10;;;3.30;99.90;;;;;;5061250;28;20100;-65
2020/12/03 01:49:58;;;;;;;25.95;14.32;;;3.30;99.90;;;;;;5063293;28;20418;-70
2020/12/03 01:52:24;;;;;;;23.77;13.38;;;3.30;99.90;;;;;;5056822;28;20040;-66
2020/12/03 01:54:51;;;;;;;25.38;13.95;;;3.30;99.90;;;;;;5058488;28;20025;-70
2020/12/03 01:57:43;;;;;;;32.22;16.85;;;3.40;99.90;;;;;;5058079;28;20480;-65
2020/12/03 02:00:13;;;;;;;26.30;15.07;;;3.40;99.90;;;;;;5063107;28;20044;-63
2020/12/03 02:02:44;;;;;;;25.92;14.02;;;3.40;99.90;;;;;;5056226;28;20346;-65
2020/12/03 02:05:14;;;;;;;31.33;15.98;;;3.40;99.90;;;;;;5058875;28;20048;-70
2020/12/03 02:07:40;;;;;;;27.45;14.63;;;3.40;99.90;;;;;;5063378;28;20021;-65
2020/12/03 02:10:08;;;;;;;29.33;16.88;;;3.40;99.90;;;;;;5058988;28;20334;-65
2020/12/03 02:12:34;;;;;;;36.40;18.95;;;3.40;99.90;;;;;;5057028;28;20040;-64
2020/12/03 02:15:00;;;;;;;35.90;18.08;;;3.40;99.90;;;;;;5058514;28;20099;-70
2020/12/03 02:17:26;;;;;;;36.80;18.15;;;3.40;99.90;;;;;;5057765;28;20029;-69
2020/12/03 02:19:59;;;;;;;28.10;17.35;;;3.40;99.90;;;;;;5056822;28;20326;-70
2020/12/03 02:22:25;;;;;;;34.78;17.58;;;3.30;99.90;;;;;;5059695;28;20033;-68
2020/12/03 02:24:51;;;;;;;34.95;18.63;;;3.30;99.90;;;;;;5059778;28;20021;-64
2020/12/03 02:27:20;;;;;;;36.88;19.05;;;3.40;99.90;;;;;;5056900;28;20078;-65
2020/12/03 02:29:46;;;;;;;36.55;17.70;;;3.30;99.90;;;;;;5060169;28;20119;-64
2020/12/03 02:32:12;;;;;;;39.25;19.02;;;3.30;99.90;;;;;;5056287;28;20059;-65
2020/12/03 02:34:38;;;;;;;39.53;18.90;;;3.30;99.90;;;;;;5058883;28;20095;-70
2020/12/03 02:37:06;;;;;;;59.05;19.25;;;3.40;99.90;;;;;;5055781;28;20128;-65
2020/12/03 02:39:33;;;;;;;48.35;17.38;;;3.40;99.90;;;;;;5064936;28;20040;-69
2020/12/03 02:42:01;;;;;;;48.35;17.00;;;3.40;99.90;;;;;;5059739;28;20032;-65
2020/12/03 02:44:27;;;;;;;38.25;16.77;;;3.30;99.90;;;;;;5058563;28;20024;-64
2020/12/03 02:46:53;;;;;;;37.80;18.95;;;3.20;99.90;;;;;;5057362;28;20025;-66
2020/12/03 02:49:19;;;;;;;61.47;17.17;;;3.30;99.90;;;;;;5056038;28;20025;-70
2020/12/03 02:51:45;;;;;;;76.25;18.48;;;3.20;99.90;;;;;;5057613;28;20032;-64
2020/12/03 02:54:13;;;;;;;76.75;18.50;;;3.20;99.90;;;;;;5058135;28;20025;-66
2020/12/03 02:56:39;;;;;;;56.33;17.75;;;3.10;99.90;;;;;;5065399;28;20025;-69
2020/12/03 02:59:06;;;;;;;46.20;18.08;;;3.10;99.90;;;;;;5063769;28;20021;-70
2020/12/03 03:01:32;;;;;;;64.18;19.02;;;3.10;99.90;;;;;;5055814;28;20388;-64
2020/12/03 03:03:58;;;;;;;45.55;17.67;;;3.10;99.90;;;;;;5057229;28;20503;-65
2020/12/03 03:06:24;;;;;;;42.90;17.52;;;3.10;99.90;;;;;;5057451;28;20059;-65
2020/12/03 03:08:50;;;;;;;48.90;17.08;;;3.10;99.90;;;;;;5057269;28;20540;-63
2020/12/03 03:11:15;;;;;;;46.85;16.80;;;3.20;99.90;;;;;;5056935;28;20032;-64
2020/12/03 03:13:41;;;;;;;48.58;18.17;;;3.00;99.90;;;;;;5058051;28;20081;-69
2020/12/03 03:16:07;;;;;;;49.17;19.20;;;3.10;99.90;;;;;;5059012;28;20051;-69
2020/12/03 03:18:33;;;;;;;52.55;19.10;;;3.10;99.90;;;;;;5055884;28;20326;-64
2020/12/03 03:20:58;;;;;;;47.58;18.63;;;3.10;99.90;;;;;;5054902;28;20461;-68
2020/12/03 03:23:24;;;;;;;49.17;19.17;;;3.10;99.90;;;;;;5038679;28;20105;-70
2020/12/03 03:25:50;;;;;;;40.25;18.77;;;3.20;99.90;;;;;;5041417;28;20527;-65
2020/12/03 03:28:16;;;;;;;41.13;17.52;;;3.20;99.90;;;;;;5039221;28;20025;-70
2020/12/03 03:30:41;;;;;;;39.92;17.08;;;3.20;99.90;;;;;;5037175;28;20031;-68
2020/12/03 03:33:07;;;;;;;34.67;16.92;;;3.20;99.90;;;;;;5049770;28;20052;-69
2020/12/03 03:35:33;;;;;;;40.90;17.48;;;3.20;99.90;;;;;;5054077;28;20032;-70
2020/12/03 03:37:59;;;;;;;54.08;17.92;;;3.20;99.90;;;;;;5054899;28;20047;-68
2020/12/03 03:40:24;;;;;;;73.35;18.17;;;3.10;99.90;;;;;;5056247;28;20020;-64
2020/12/03 03:42:50;;;;;;;38.60;15.20;;;3.00;99.90;;;;;;5060736;28;20039;-65
2020/12/03 03:45:16;;;;;;;34.60;14.75;;;2.90;99.90;;;;;;5056999;28;20064;-64
2020/12/03 03:47:43;;;;;;;38.10;13.18;;;2.90;99.90;;;;;;5056817;28;20024;-68
2020/12/03 03:50:09;;;;;;;59.35;14.95;;;2.90;99.90;;;;;;5059213;28;20112;-64
2020/12/03 03:52:36;;;;;;;48.95;14.00;;;2.90;99.90;;;;;;5056890;28;20029;-69
2020/12/03 03:55:02;;;;;;;43.22;14.77;;;2.90;99.90;;;;;;5055140;28;20021;-64
2020/12/03 03:57:27;;;;;;;43.38;14.98;;;2.90;99.90;;;;;;5057351;28;20422;-64
2020/12/03 03:59:53;;;;;;;31.88;13.93;;;2.90;99.90;;;;;;5055769;28;20476;-68
2020/12/03 04:02:20;;;;;;;51.05;15.05;;;2.90;99.90;;;;;;5055981;28;20017;-65
2020/12/03 04:04:46;;;;;;;47.22;16.08;;;3.00;99.90;;;;;;5057913;28;20037;-65
2020/12/03 04:07:13;;;;;;;39.38;14.80;;;2.90;99.90;;;;;;5057079;28;20029;-69
2020/12/03 04:09:38;;;;;;;30.92;15.70;;;3.00;99.90;;;;;;5055285;28;20048;-69
2020/12/03 04:12:04;;;;;;;34.58;15.98;;;3.00;99.90;;;;;;5056359;28;20028;-69
2020/12/03 04:14:29;;;;;;;45.55;16.48;;;3.10;99.90;;;;;;5054944;28;20060;-64
2020/12/03 04:16:55;;;;;;;33.45;14.43;;;3.20;99.90;;;;;;5054984;28;20032;-65
2020/12/03 04:19:20;;;;;;;35.75;14.60;;;3.20;99.90;;;;;;5057883;28;20021;-70
2020/12/03 04:21:46;;;;;;;47.70;15.55;;;3.20;99.90;;;;;;5055481;28;20048;-65
2020/12/03 04:24:12;;;;;;;60.78;15.68;;;3.10;99.90;;;;;;5056694;28;20020;-64
2020/12/03 04:26:37;;;;;;;50.13;16.30;;;3.10;99.90;;;;;;5057241;28;20021;-69
2020/12/03 04:29:03;;;;;;;48.03;14.55;;;3.00;99.90;;;;;;5056535;28;20035;-65
2020/12/03 04:31:28;;;;;;;48.00;15.82;;;3.00;99.90;;;;;;5053580;28;20028;-69
2020/12/03 04:33:54;;;;;;;48.97;14.95;;;3.00;99.90;;;;;;5053484;28;20068;-69
2020/12/03 04:36:20;;;;;;;49.85;15.48;;;3.00;99.90;;;;;;5058165;28;20025;-66
2020/12/03 04:38:45;;;;;;;38.00;14.85;;;3.00;99.90;;;;;;5056534;28;20598;-69
2020/12/03 04:41:11;;;;;;;37.08;15.65;;;3.00;99.90;;;;;;5055629;28;20021;-69
2020/12/03 04:43:46;;;;;;;38.70;15.15;;;3.00;99.90;;;;;;5055339;28;20017;-69
2020/12/03 04:46:42;;;;;;;39.15;14.65;;;3.00;99.90;;;;;;5054399;28;20473;-69
2020/12/03 04:49:33;;;;;;;47.65;14.40;;;3.10;99.90;;;;;;5054330;28;20074;-65
2020/12/03 04:52:38;;;;;;;39.00;15.15;;;3.00;99.90;;;;;;5055472;28;20029;-69
2020/12/03 04:55:18;;;;;;;62.10;15.52;;;3.00;99.90;;;;;;5054655;28;20033;-68
2020/12/03 04:58:00;;;;;;;32.67;14.65;;;3.00;99.90;;;;;;5054648;28;20112;-69
2020/12/03 05:00:44;;;;;;;31.13;14.15;;;3.00;99.90;;;;;;5057091;28;20021;-64
2020/12/03 05:03:42;;;;;;;47.88;15.02;;;3.00;99.90;;;;;;5052772;28;20047;-65
2020/12/03 05:06:16;;;;;;;34.95;15.70;;;3.00;99.90;;;;;;5054153;28;20021;-65
2020/12/03 05:08:58;;;;;;;40.47;15.18;;;3.00;99.90;;;;;;5054345;28;20029;-65
2020/12/03 05:11:31;;;;;;;39.10;16.48;;;3.10;99.90;;;;;;5057369;28;20025;-69
2020/12/03 05:14:02;;;;;;;37.25;16.00;;;3.10;99.90;;;;;;5034480;28;20398;-65
2020/12/03 05:16:46;;;;;;;52.40;17.27;;;3.20;99.90;;;;;;5037721;28;20072;-65
2020/12/03 05:19:37;;;;;;;43.03;16.10;;;3.10;99.90;;;;;;5033914;28;20026;-65
2020/12/03 05:22:18;;;;;;;47.53;16.67;;;3.10;99.90;;;;;;5035320;28;20048;-70
2020/12/03 05:24:44;;;;;;;56.30;16.70;;;3.00;99.90;;;;;;5034404;28;20083;-69
2020/12/03 05:27:22;;;;;;;66.25;19.23;;;3.00;99.90;;;;;;5038088;28;20030;-69
2020/12/03 05:29:48;;;;;;;40.97;17.70;;;2.90;99.90;;;;;;5037788;28;20029;-70
2020/12/03 05:32:14;;;;;;;58.67;17.98;;;2.90;99.90;;;;;;5041414;28;20041;-70
2020/12/03 05:34:40;;;;;;;42.88;16.88;;;3.00;99.90;;;;;;5054833;28;20377;-64
2020/12/03 05:37:13;;;;;;;42.88;16.92;;;3.00;99.90;;;;;;5053757;28;20158;-65
2020/12/03 05:39:55;;;;;;;51.50;17.42;;;3.00;99.90;;;;;;5054346;28;20044;-65
2020/12/03 05:42:30;;;;;;;48.65;16.23;;;3.00;99.90;;;;;;5053184;28;20144;-69
2020/12/03 05:45:07;;;;;;;33.60;16.75;;;3.00;99.90;;;;;;5056518;28;20025;-64
2020/12/03 05:47:35;;;;;;;36.95;16.00;;;3.00;99.90;;;;;;5055222;28;20112;-65
2020/12/03 05:50:07;;;;;;;56.03;16.83;;;3.10;99.90;;;;;;5054977;28;20029;-70
2020/12/03 05:52:33;;;;;;;37.83;15.50;;;3.10;99.90;;;;;;5053834;28;20048;-65
2020/12/03 05:55:11;;;;;;;44.47;17.08;;;3.10;99.90;;;;;;5054519;28;20603;-66
2020/12/03 05:57:39;;;;;;;39.60;17.48;;;3.10;99.90;;;;;;5053823;28;20048;-65
2020/12/03 06:00:15;;;;;;;45.55;15.68;;;3.10;99.90;;;;;;5055411;28;20029;-66
2020/12/03 06:02:52;;;;;;;54.58;16.88;;;3.10;99.90;;;;;;5057027;28;20033;-70
2020/12/03 06:05:46;;;;;;;42.50;15.32;;;3.00;99.90;;;;;;5053047;28;20103;-70
2020/12/03 06:08:36;;;;;;;52.50;15.18;;;3.00;99.90;;;;;;5054558;28;20021;-71
2020/12/03 06:11:21;;;;;;;32.13;14.77;;;3.00;99.90;;;;;;5055494;28;20109;-65
2020/12/03 06:14:24;;;;;;;29.70;15.30;;;3.10;99.90;;;;;;5054420;28;20390;-67
2020/12/03 06:17:09;;;;;;;31.17;14.48;;;3.10;99.90;;;;;;5057195;28;20216;-65
2020/12/03 06:19:41;;;;;;;40.95;13.07;;;3.20;99.90;;;;;;5060710;28;20029;-70
2020/12/03 06:22:15;;;;;;;26.05;13.88;;;3.20;99.90;;;;;;5053942;28;20053;-70
2020/12/03 06:24:58;;;;;;;26.05;13.30;;;3.20;99.90;;;;;;5056435;28;20047;-69
2020/12/03 06:27:45;;;;;;;47.65;13.38;;;3.20;99.90;;;;;;5054787;28;20028;-65
2020/12/03 06:30:27;;;;;;;30.30;13.02;;;3.20;99.90;;;;;;5054857;28;20484;-70
2020/12/03 06:33:05;;;;;;;33.05;13.32;;;3.20;99.90;;;;;;5055081;28;20084;-65
2020/12/03 06:36:04;;;;;;;27.63;12.70;;;3.20;99.90;;;;;;5049425;28;20080;-65
2020/12/03 06:38:47;;;;;;;25.02;13.35;;;3.20;99.90;;;;;;5040266;28;20052;-65
2020/12/03 06:41:46;;;;;;;25.85;13.55;;;3.20;99.90;;;;;;5037233;28;20492;-68
2020/12/03 06:44:34;;;;;;;25.10;12.48;;;3.30;99.90;;;;;;5039061;28;20014;-67
2020/12/03 06:47:25;;;;;;;23.20;11.43;;;3.30;99.90;;;;;;5037221;28;20052;-65
2020/12/03 06:50:24;;;;;;;29.25;13.20;;;3.30;99.90;;;;;;5042102;28;20029;-71
2020/12/03 06:53:05;;;;;;;23.90;13.27;;;3.30;99.90;;;;;;5041081;28;20127;-65
2020/12/03 06:55:42;;;;;;;32.05;13.55;;;3.30;99.90;;;;;;5039750;28;20029;-68
2020/12/03 06:58:25;;;;;;;22.30;12.82;;;3.30;99.90;;;;;;5036378;28;20048;-70
2020/12/03 07:01:23;;;;;;;24.58;12.07;;;3.30;99.90;;;;;;5039552;28;20029;-66
2020/12/03 07:04:06;;;;;;;88.30;14.63;;;3.30;99.90;;;;;;5037768;28;20044;-69
2020/12/03 07:06:50;;;;;;;63.88;14.45;;;3.20;99.90;;;;;;5038653;28;20028;-67
2020/12/03 07:09:27;;;;;;;56.58;14.35;;;3.20;99.90;;;;;;5040948;28;20055;-70
2020/12/03 07:12:07;;;;;;;28.67;14.10;;;3.10;99.90;;;;;;5040257;28;20424;-66
2020/12/03 07:15:00;;;;;;;37.13;13.23;;;3.00;99.90;;;;;;5036108;28;20346;-71
2020/12/03 07:17:26;;;;;;;74.03;14.27;;;3.00;99.90;;;;;;5038228;28;20107;-67
2020/12/03 07:20:06;;;;;;;67.45;15.00;;;3.00;99.90;;;;;;5040140;28;20420;-65
2020/12/03 07:22:35;;;;;;;55.88;14.23;;;3.00;99.90;;;;;;5046869;28;20446;-65
2020/12/03 07:25:03;;;;;;;34.20;13.48;;;3.00;99.90;;;;;;5055641;28;20040;-71
2020/12/03 07:28:05;;;;;;;26.15;13.90;;;3.00;99.90;;;;;;5062703;28;20112;-71
2020/12/03 07:30:48;;;;;;;26.75;14.75;;;3.20;99.90;;;;;;5058280;28;20029;-70
2020/12/03 07:33:31;;;;;;;24.30;12.82;;;3.20;99.90;;;;;;5055937;28;20036;-66
2020/12/03 07:36:27;;;;;;;31.35;12.45;;;3.30;99.90;;;;;;5058238;28;20366;-67
2020/12/03 07:39:02;;;;;;;22.90;11.80;;;3.30;99.90;;;;;;5060334;28;20548;-67
2020/12/03 07:41:40;;;;;;;50.67;12.52;;;3.30;99.90;;;;;;5055927;28;20021;-68
2020/12/03 07:44:20;;;;;;;47.35;13.30;;;3.30;99.90;;;;;;5062209;28;20044;-66
2020/12/03 07:46:47;;;;;;;36.05;13.52;;;3.20;99.90;;;;;;5061827;28;20075;-70
2020/12/03 07:49:43;;;;;;;28.77;13.07;;;3.10;99.90;;;;;;5058504;28;20020;-66
2020/12/03 07:52:20;;;;;;;28.48;12.95;;;3.20;99.90;;;;;;5059014;28;20021;-69
2020/12/03 07:54:46;;;;;;;39.80;13.10;;;3.30;99.90;;;;;;5059294;28;20120;-64
2020/12/03 07:57:45;;;;;;;35.55;14.57;;;3.40;99.90;;;;;;5056889;28;20056;-70
2020/12/03 08:00:29;;;;;;;42.53;13.95;;;3.40;99.90;;;;;;5059553;28;20021;-66
2020/12/03 08:02:57;;;;;;;48.65;13.35;;;3.30;99.90;;;;;;5058367;28;20037;-71
2020/12/03 08:05:41;;;;;;;30.25;13.77;;;3.30;99.90;;;;;;5061380;28;20025;-70
2020/12/03 08:08:27;;;;;;;36.75;13.07;;;3.40;99.90;;;;;;5059259;28;20017;-68
2020/12/03 08:10:54;;;;;;;32.42;14.05;;;3.50;99.90;;;;;;5061640;28;20044;-69
2020/12/03 08:13:29;;;;;;;26.45;14.15;;;3.50;99.90;;;;;;5041546;28;20365;-66
2020/12/03 08:16:06;;;;;;;30.20;14.10;;;3.60;99.90;;;;;;5037022;28;20060;-70
2020/12/03 08:18:57;;;;;;;33.50;14.05;;;3.70;99.90;;;;;;5037255;28;20032;-69
2020/12/03 08:21:38;;;;;;;46.20;13.80;;;3.70;99.90;;;;;;5040494;28;20026;-66
2020/12/03 08:24:06;;;;;;;29.58;14.75;;;3.70;99.90;;;;;;5037338;28;20108;-66
2020/12/03 08:26:32;;;;;;;27.10;14.75;;;3.70;99.90;;;;;;5039549;28;20021;-66
2020/12/03 08:28:57;;;;;;;25.60;14.95;;;3.80;99.90;;;;;;5037768;28;20107;-64
2020/12/03 08:31:23;;;;;;;77.43;36.85;;;3.80;99.90;;;;;;5035889;28;20484;-66
2020/12/03 08:33:53;;;;;;;40.88;21.83;;;3.90;99.90;;;;;;5056246;28;20033;-65
2020/12/03 08:36:19;;;;;;;41.90;17.67;;;3.90;99.90;;;;;;5059637;28;20105;-71
2020/12/03 08:38:51;;;;;;;37.92;17.00;;;3.90;99.90;;;;;;5059461;28;20447;-70
2020/12/03 08:41:19;;;;;;;39.35;17.98;;;4.00;99.90;;;;;;5057485;28;20028;-70
2020/12/03 08:43:54;;;;;;;46.33;19.02;;;4.00;99.90;;;;;;5058840;28;20047;-66
2020/12/03 08:46:23;;;;;;;37.05;17.25;;;3.90;99.90;;;;;;5057106;28;20456;-70
2020/12/03 08:48:49;;;;;;;37.33;16.75;;;4.00;99.90;;;;;;5057043;28;20024;-69
2020/12/03 08:51:17;;;;;;;30.27;16.85;;;3.90;99.90;;;;;;5060459;28;20025;-71
2020/12/03 08:53:49;;;;;;;30.02;15.68;;;3.90;99.90;;;;;;5057951;28;20043;-69
2020/12/03 08:56:20;;;;;;;32.30;15.95;;;4.00;99.90;;;;;;5058882;28;20033;-69
2020/12/03 08:58:51;;;;;;;38.72;20.25;;;4.00;99.90;;;;;;5056222;28;20021;-71
2020/12/03 09:01:21;;;;;;;31.20;15.98;;;4.10;99.90;;;;;;5059500;28;20484;-70
2020/12/03 09:03:47;;;;;;;;;;;4.10;99.90;;;;;;5055983;28;20040;-64
2020/12/03 09:06:13;;;;;;;48.63;23.13;;;4.10;99.90;;;;;;5060413;28;20394;-69
2020/12/03 09:08:39;;;;;;;40.53;19.75;;;4.10;99.90;;;;;;5058970;28;20071;-67
2020/12/03 09:11:05;;;;;;;48.15;22.35;;;4.10;99.90;;;;;;5057954;28;20033;-66
2020/12/03 09:13:31;;;;;;;48.50;19.65;;;4.20;99.90;;;;;;5057625;28;20445;-71
2020/12/03 09:15:58;;;;;;;41.05;20.17;;;4.20;99.90;;;;;;5059694;28;20476;-65
2020/12/03 09:18:24;;;;;;;44.38;21.42;;;4.30;99.90;;;;;;5057296;28;20155;-68
2020/12/03 09:20:50;;;;;;;47.67;23.23;;;4.30;99.90;;;;;;5058342;28;20057;-67
2020/12/03 09:23:24;;;;;;;47.80;21.83;;;4.30;99.90;;;;;;5061183;28;20029;-70
2020/12/03 09:25:50;;;;;;;58.35;23.58;;;4.30;99.90;;;;;;5055343;28;20033;-65
2020/12/03 09:28:18;;;;;;;60.72;23.58;;;4.30;99.90;;;;;;5056292;28;20117;-66
2020/12/03 09:30:46;;;;;;;53.42;23.05;;;4.30;99.90;;;;;;5057193;28;20033;-69
2020/12/03 09:33:19;;;;;;;45.85;21.85;;;4.40;99.90;;;;;;5058164;28;20147;-70
2020/12/03 09:35:47;;;;;;;49.55;20.98;;;4.40;99.90;;;;;;5057794;28;20114;-70
2020/12/03 09:38:15;;;;;;;45.03;21.50;;;4.40;99.90;;;;;;5057770;28;20468;-70
2020/12/03 09:40:48;;;;;;;36.97;19.05;;;4.50;99.90;;;;;;5058449;28;20029;-67
2020/12/03 09:43:19;;;;;;;33.53;17.40;;;4.40;99.90;;;;;;5055168;28;20025;-70
2020/12/03 09:45:49;;;;;;;32.58;18.02;;;4.50;99.90;;;;;;5057500;28;20029;-71
2020/12/03 09:48:17;;;;;;;35.65;17.73;;;4.60;99.90;;;;;;5061113;28;20096;-70
2020/12/03 09:50:49;;;;;;;37.88;17.77;;;4.60;99.90;;;;;;5063160;28;20025;-66
2020/12/03 09:53:17;;;;;;;37.25;17.60;;;4.60;99.90;;;;;;5062466;28;20366;-67
2020/12/03 09:55:43;;;;;;;32.25;16.05;;;4.60;99.90;;;;;;5059334;28;20032;-65
2020/12/03 09:58:09;;;;;;;35.30;17.55;;;4.60;99.90;;;;;;5060475;28;20032;-71
2020/12/03 10:00:40;;;;;;;34.53;17.30;;;4.70;99.90;;;;;;5057415;28;20029;-66
2020/12/03 10:03:26;;;;;;;31.85;17.52;;;4.70;99.90;;;;;;5061103;28;20095;-71
2020/12/03 10:06:08;;;;;;;31.05;16.02;;;4.80;99.90;;;;;;5061421;28;20349;-66
2020/12/03 10:08:53;;;;;;;30.77;17.13;;;4.80;99.90;;;;;;5061977;28;20107;-71
2020/12/03 10:11:50;;;;;;;31.15;17.02;;;4.90;99.90;;;;;;5058675;28;20481;-68
2020/12/03 10:14:28;;;;;;;28.20;16.30;;;5.00;99.90;;;;;;5059251;28;20029;-65
2020/12/03 10:17:07;;;;;;;33.28;16.63;;;5.00;99.90;;;;;;5057693;28;20048;-70
2020/12/03 10:19:41;;;;;;;32.83;18.83;;;5.10;99.90;;;;;;5064607;28;20024;-65
2020/12/03 10:22:33;;;;;;;34.42;18.25;;;5.10;99.90;;;;;;5055125;28;20021;-65
2020/12/03 10:25:09;;;;;;;34.40;17.13;;;5.00;99.90;;;;;;5042559;28;20405;-68
2020/12/03 10:27:42;;;;;;;36.17;19.15;;;5.10;99.90;;;;;;5039309;28;20064;-69
2020/12/03 10:30:18;;;;;;;36.92;19.48;;;5.10;99.90;;;;;;5039567;28;20079;-67
2020/12/03 10:32:46;;;;;;;43.42;21.73;;;5.10;99.90;;;;;;5052294;28;20036;-69
2020/12/03 10:35:13;;;;;;;39.78;20.70;;;5.20;99.90;;;;;;5059129;28;20033;-65
2020/12/03 10:37:54;;;;;;;40.35;21.33;;;5.10;99.90;;;;;;5059719;28;20116;-68
2020/12/03 10:40:20;;;;;;;52.95;23.40;;;5.10;99.90;;;;;;5062425;28;20029;-66
2020/12/03 10:42:57;;;;;;;42.95;22.45;;;5.10;99.90;;;;;;5058753;28;20534;-65
2020/12/03 10:45:30;;;;;;;52.63;25.38;;;5.20;99.90;;;;;;5058701;28;20466;-66
2020/12/03 10:48:00;;;;;;;48.10;24.05;;;5.20;99.90;;;;;;5059686;28;20017;-63
2020/12/03 10:50:46;;;;;;;52.30;26.77;;;5.20;99.90;;;;;;5057955;28;20441;-70
2020/12/03 10:53:12;;;;;;;50.08;24.75;;;5.30;99.90;;;;;;5055606;28;20079;-70
2020/12/03 10:55:37;;;;;;;61.42;27.10;;;5.20;99.90;;;;;;5064102;28;20029;-65
2020/12/03 10:58:09;;;;;;;54.58;26.75;;;5.40;99.90;;;;;;5059754;28;20021;-71
2020/12/03 11:00:36;;;;;;;53.13;25.00;;;5.50;99.90;;;;;;5058137;28;20450;-69
2020/12/03 11:03:07;;;;;;;49.28;24.02;;;5.50;99.90;;;;;;5059237;28;20025;-65
2020/12/03 11:05:33;;;;;;;46.58;23.65;;;5.50;99.90;;;;;;5058120;28;20060;-66
2020/12/03 11:07:59;;;;;;;49.15;24.60;;;5.50;99.90;;;;;;5056752;28;20029;-66
2020/12/03 11:10:27;;;;;;;45.33;22.98;;;5.40;99.90;;;;;;5059765;28;20081;-68
2020/12/03 11:12:59;;;;;;;56.03;23.65;;;5.40;99.90;;;;;;5059988;28;20029;-70
2020/12/03 11:15:28;;;;;;;53.50;25.85;;;5.40;99.90;;;;;;5058170;28;20059;-67
2020/12/03 11:18:05;;;;;;;47.75;23.77;;;5.50;99.90;;;;;;5057820;28;20527;-68
2020/12/03 11:20:35;;;;;;;46.15;23.08;;;5.60;99.90;;;;;;5058297;28;20025;-70
2020/12/03 11:23:05;;;;;;;47.17;23.35;;;5.60;99.90;;;;;;5056655;28;20100;-70
2020/12/03 11:25:31;;;;;;;49.15;24.05;;;5.50;99.90;;;;;;5058967;28;20021;-71
2020/12/03 11:28:03;;;;;;;41.25;22.42;;;5.40;99.90;;;;;;5059754;28;20021;-69
2020/12/03 11:30:31;;;;;;;44.55;23.65;;;5.40;99.90;;;;;;5058174;28;20029;-66
2020/12/03 11:32:57;;;;;;;46.58;23.52;;;5.40;99.90;;;;;;5058389;28;20049;-67
2020/12/03 11:35:31;;;;;;;47.17;23.38;;;5.30;99.90;;;;;;5060758;28;20033;-66
2020/12/03 11:38:00;;;;;;;46.10;23.58;;;5.40;99.90;;;;;;5059696;28;20037;-70
2020/12/03 11:51:04;;;;;;;45.15;23.40;;;5.50;99.90;;;;;;5035723;28;20026;-70
2020/12/03 11:53:31;;;;;;;44.55;22.77;;;5.50;99.90;;;;;;5037682;28;20033;-69
2020/12/03 11:55:57;;;;;;;43.97;22.67;;;5.60;99.90;;;;;;5042018;28;20040;-70
2020/12/03 11:58:29;;;;;;;48.20;22.60;;;5.70;99.90;;;;;;5039133;28;20096;-67
2020/12/03 12:01:13;;;;;;;50.45;24.08;;;5.60;99.90;;;;;;5041218;28;20090;-69
2020/12/03 12:03:43;;;;;;;49.95;24.20;;;5.70;99.90;;;;;;5055910;28;20040;-65
2020/12/03 12:06:23;;;;;;;48.03;23.88;;;5.70;99.90;;;;;;5056518;28;20036;-71
2020/12/03 12:08:58;;;;;;;53.47;25.17;;;5.80;99.90;;;;;;5059589;28;20051;-70
2020/12/03 12:11:33;;;;;;;51.65;25.75;;;5.80;99.90;;;;;;5061045;28;20086;-67
2020/12/03 12:13:58;;;;;;;51.97;26.80;;;5.90;99.90;;;;;;5057518;28;20501;-70
2020/12/03 12:16:24;;;;;;;57.22;26.77;;;5.90;99.90;;;;;;5060866;28;20021;-65
2020/12/03 12:18:51;;;;;;;59.72;28.27;;;5.70;99.90;;;;;;5055766;28;20029;-70
2020/12/03 12:21:17;;;;;;;56.60;27.05;;;5.70;99.90;;;;;;5057832;28;20036;-66
2020/12/03 12:23:42;;;;;;;53.40;26.63;;;5.80;99.90;;;;;;5056662;28;20033;-70
2020/12/03 12:26:08;;;;;;;50.95;25.33;;;5.90;99.90;;;;;;5057447;28;20063;-68
2020/12/03 12:28:33;;;;;;;52.65;26.27;;;5.80;99.90;;;;;;5059578;28;20055;-69
2020/12/03 12:30:59;;;;;;;56.65;26.60;;;5.80;99.90;;;;;;5060254;28;20021;-65
2020/12/03 12:33:25;;;;;;;50.90;26.45;;;5.70;99.90;;;;;;5058255;28;20128;-64
2020/12/03 12:35:50;;;;;;;53.25;26.50;;;5.70;99.90;;;;;;5055802;28;20029;-69
2020/12/03 12:38:16;;;;;;;51.60;25.23;;;5.80;99.90;;;;;;5058084;28;20033;-64
2020/12/03 12:40:42;;;;;;;49.92;25.73;;;5.80;99.90;;;;;;5056427;28;20033;-69
2020/12/03 12:43:08;;;;;;;53.47;26.52;;;5.80;99.90;;;;;;5057478;28;20072;-68
2020/12/03 12:45:33;;;;;;;52.03;27.48;;;5.80;99.90;;;;;;5060551;28;20017;-68
2020/12/03 12:47:59;;;;;;;57.85;28.92;;;5.80;99.90;;;;;;5058286;28;20025;-68
2020/12/03 12:50:25;;;;;;;54.63;27.60;;;5.80;99.90;;;;;;5056462;28;20047;-70
2020/12/03 12:52:50;;;;;;;55.80;26.67;;;5.70;99.90;;;;;;5054916;28;20548;-65
2020/12/03 12:55:16;;;;;;;54.90;28.52;;;5.90;99.90;;;;;;5056635;28;20036;-69
2020/12/03 12:57:42;;;;;;;57.28;27.70;;;6.10;99.90;;;;;;5056778;28;20486;-65
2020/12/03 13:00:07;;;;;;;56.97;27.67;;;6.20;99.90;;;;;;5058426;28;20025;-65
2020/12/03 13:02:33;;;;;;;60.63;28.65;;;6.30;99.90;;;;;;5061248;28;20026;-71
2020/12/03 13:04:59;;;;;;;49.83;26.45;;;6.20;99.90;;;;;;5056749;28;20021;-69
2020/12/03 13:07:24;;;;;;;54.88;27.80;;;6.20;99.90;;;;;;5056364;28;20021;-69
2020/12/03 13:09:50;;;;;;;52.85;27.25;;;6.20;99.90;;;;;;5054352;28;20362;-70
2020/12/03 13:12:17;;;;;;;52.25;27.08;;;6.30;99.90;;;;;;5059417;28;20025;-71